sensor_id;sensor_type;location;lat;lon;timestamp;pressure;altitude;pressure_sealevel;temperature;humidity
42771;BME280;28426;42.872;25.314;2023-04-03T00:00:34;96364.94;;;7.33;62.80
42771;BME280;28426;42.872;25.314;2023-04-03T00:03:05;96369.97;;;7.28;62.53
42771;BME280;28426;42.872;25.314;2023-04-03T00:05:38;96366.22;;;7.23;62.67
42771;BME280;28426;42.872;25.314;2023-04-03T00:08:09;96365.94;;;7.17;63.27
42771;BME280;28426;42.872;25.314;2023-04-03T00:10:40;96357.69;;;7.12;63.90
42771;BME280;28426;42.872;25.314;2023-04-03T00:13:11;96360.25;;;7.05;63.80
42771;BME280;28426;42.872;25.314;2023-04-03T00:15:42;96356.69;;;6.98;64.32
42771;BME280;28426;42.872;25.314;2023-04-03T00:18:13;96357.22;;;6.93;63.82
42771;BME280;28426;42.872;25.314;2023-04-03T00:20:47;96352.63;;;6.87;64.04
42771;BME280;28426;42.872;25.314;2023-04-03T00:23:17;96359.31;;;6.83;64.01
42771;BME280;28426;42.872;25.314;2023-04-03T00:25:48;96349.03;;;6.80;64.07
42771;BME280;28426;42.872;25.314;2023-04-03T00:28:19;96351.25;;;6.76;64.74
42771;BME280;28426;42.872;25.314;2023-04-03T00:30:50;96347.13;;;6.74;64.29
42771;BME280;28426;42.872;25.314;2023-04-03T00:33:21;96340.53;;;6.70;64.29
42771;BME280;28426;42.872;25.314;2023-04-03T00:35:54;96340.88;;;6.66;64.21
42771;BME280;28426;42.872;25.314;2023-04-03T00:38:25;96337.59;;;6.64;64.56
42771;BME280;28426;42.872;25.314;2023-04-03T00:40:56;96342.91;;;6.64;64.12
42771;BME280;28426;42.872;25.314;2023-04-03T00:43:27;96339.41;;;6.64;64.70
42771;BME280;28426;42.872;25.314;2023-04-03T00:45:58;96343.25;;;6.61;64.10
42771;BME280;28426;42.872;25.314;2023-04-03T00:48:31;96344.09;;;6.62;64.38
42771;BME280;28426;42.872;25.314;2023-04-03T00:51:07;96353.00;;;6.61;64.16
42771;BME280;28426;42.872;25.314;2023-04-03T00:53:43;96347.09;;;6.59;64.67
42771;BME280;28426;42.872;25.314;2023-04-03T00:56:16;96335.91;;;6.48;64.36
42771;BME280;28426;42.872;25.314;2023-04-03T00:58:51;96346.78;;;6.53;64.77
42771;BME280;28426;42.872;25.314;2023-04-03T01:01:27;96342.69;;;6.51;64.56
42771;BME280;28426;42.872;25.314;2023-04-03T01:03:59;96338.44;;;6.41;64.48
42771;BME280;28426;42.872;25.314;2023-04-03T01:06:36;96346.41;;;6.41;65.07
42771;BME280;28426;42.872;25.314;2023-04-03T01:09:08;96348.56;;;6.38;64.90
42771;BME280;28426;42.872;25.314;2023-04-03T01:11:39;96350.56;;;6.36;65.37
42771;BME280;28426;42.872;25.314;2023-04-03T01:14:10;96341.50;;;6.30;65.10
42771;BME280;28426;42.872;25.314;2023-04-03T01:16:40;96349.16;;;6.25;65.56
42771;BME280;28426;42.872;25.314;2023-04-03T01:19:15;96349.88;;;6.19;66.01
42771;BME280;28426;42.872;25.314;2023-04-03T01:22:07;96352.56;;;6.10;66.33
42771;BME280;28426;42.872;25.314;2023-04-03T01:24:44;96347.78;;;6.06;66.13
42771;BME280;28426;42.872;25.314;2023-04-03T01:27:15;96354.56;;;6.00;66.07
42771;BME280;28426;42.872;25.314;2023-04-03T01:29:46;96352.63;;;5.94;66.36
42771;BME280;28426;42.872;25.314;2023-04-03T01:32:20;96348.03;;;5.87;66.13
42771;BME280;28426;42.872;25.314;2023-04-03T01:34:51;96356.16;;;5.86;66.39
42771;BME280;28426;42.872;25.314;2023-04-03T01:37:22;96350.38;;;5.82;66.44
42771;BME280;28426;42.872;25.314;2023-04-03T01:39:52;96353.38;;;5.79;66.95
42771;BME280;28426;42.872;25.314;2023-04-03T01:42:23;96359.16;;;5.74;66.95
42771;BME280;28426;42.872;25.314;2023-04-03T01:44:54;96353.41;;;5.71;66.80
42771;BME280;28426;42.872;25.314;2023-04-03T01:47:27;96353.75;;;5.68;66.83
42771;BME280;28426;42.872;25.314;2023-04-03T01:49:58;96350.63;;;5.64;66.74
42771;BME280;28426;42.872;25.314;2023-04-03T01:52:32;96363.84;;;5.64;66.97
42771;BME280;28426;42.872;25.314;2023-04-03T01:55:03;96364.19;;;5.61;67.06
42771;BME280;28426;42.872;25.314;2023-04-03T01:57:34;96360.75;;;5.60;67.20
42771;BME280;28426;42.872;25.314;2023-04-03T02:00:06;96360.91;;;5.59;66.97
42771;BME280;28426;42.872;25.314;2023-04-03T02:02:43;96362.72;;;5.58;66.96
42771;BME280;28426;42.872;25.314;2023-04-03T02:05:14;96370.81;;;5.57;66.97
42771;BME280;28426;42.872;25.314;2023-04-03T02:07:45;96371.03;;;5.55;67.23
42771;BME280;28426;42.872;25.314;2023-04-03T02:10:16;96369.34;;;5.54;67.27
42771;BME280;28426;42.872;25.314;2023-04-03T02:12:47;96372.34;;;5.51;67.17
42771;BME280;28426;42.872;25.314;2023-04-03T02:15:19;96366.41;;;5.49;67.79
42771;BME280;28426;42.872;25.314;2023-04-03T02:17:52;96365.59;;;5.40;67.89
42771;BME280;28426;42.872;25.314;2023-04-03T02:20:23;96370.06;;;5.40;67.87
42771;BME280;28426;42.872;25.314;2023-04-03T02:22:54;96364.47;;;5.34;67.72
42771;BME280;28426;42.872;25.314;2023-04-03T02:25:25;96370.91;;;5.32;68.15
42771;BME280;28426;42.872;25.314;2023-04-03T02:27:55;96381.34;;;5.25;68.03
42771;BME280;28426;42.872;25.314;2023-04-03T02:30:26;96366.66;;;5.14;68.03
42771;BME280;28426;42.872;25.314;2023-04-03T02:32:59;96371.63;;;5.17;68.45
42771;BME280;28426;42.872;25.314;2023-04-03T02:35:31;96370.47;;;5.12;68.14
42771;BME280;28426;42.872;25.314;2023-04-03T02:38:02;96363.53;;;5.10;68.24
42771;BME280;28426;42.872;25.314;2023-04-03T02:40:34;96361.88;;;5.09;68.46
42771;BME280;28426;42.872;25.314;2023-04-03T02:43:05;96358.59;;;5.07;68.51
42771;BME280;28426;42.872;25.314;2023-04-03T02:45:37;96365.88;;;5.05;68.50
42771;BME280;28426;42.872;25.314;2023-04-03T02:48:10;96366.19;;;5.02;69.00
42771;BME280;28426;42.872;25.314;2023-04-03T02:50:42;96367.38;;;5.00;68.61
42771;BME280;28426;42.872;25.314;2023-04-03T02:53:13;96368.84;;;4.94;68.84
42771;BME280;28426;42.872;25.314;2023-04-03T02:55:43;96362.91;;;4.92;68.69
42771;BME280;28426;42.872;25.314;2023-04-03T02:58:14;96359.75;;;4.88;69.17
42771;BME280;28426;42.872;25.314;2023-04-03T03:00:45;96363.72;;;4.84;69.12
42771;BME280;28426;42.872;25.314;2023-04-03T03:03:19;96366.06;;;4.79;69.17
42771;BME280;28426;42.872;25.314;2023-04-03T03:05:49;96368.06;;;4.77;68.99
42771;BME280;28426;42.872;25.314;2023-04-03T03:08:20;96368.22;;;4.75;69.32
42771;BME280;28426;42.872;25.314;2023-04-03T03:10:51;96362.25;;;4.73;69.19
42771;BME280;28426;42.872;25.314;2023-04-03T03:13:21;96367.72;;;4.71;69.43
42771;BME280;28426;42.872;25.314;2023-04-03T03:15:52;96369.53;;;4.71;69.62
42771;BME280;28426;42.872;25.314;2023-04-03T03:18:26;96368.69;;;4.70;69.45
42771;BME280;28426;42.872;25.314;2023-04-03T03:20:58;96355.84;;;4.67;69.53
42771;BME280;28426;42.872;25.314;2023-04-03T03:23:30;96359.44;;;4.66;69.41
42771;BME280;28426;42.872;25.314;2023-04-03T03:26:04;96361.28;;;4.66;69.75
42771;BME280;28426;42.872;25.314;2023-04-03T03:28:36;96362.28;;;4.65;69.56
42771;BME280;28426;42.872;25.314;2023-04-03T03:31:09;96351.88;;;4.63;69.59
42771;BME280;28426;42.872;25.314;2023-04-03T03:33:43;96351.03;;;4.63;69.96
42771;BME280;28426;42.872;25.314;2023-04-03T03:36:14;96347.75;;;4.61;69.90
42771;BME280;28426;42.872;25.314;2023-04-03T03:38:44;96354.69;;;4.62;69.50
42771;BME280;28426;42.872;25.314;2023-04-03T03:41:15;96351.34;;;4.60;69.37
42771;BME280;28426;42.872;25.314;2023-04-03T03:43:47;96355.00;;;4.58;69.23
42771;BME280;28426;42.872;25.314;2023-04-03T03:46:18;96356.84;;;4.58;69.22
42771;BME280;28426;42.872;25.314;2023-04-03T03:48:51;96357.00;;;4.56;69.50
42771;BME280;28426;42.872;25.314;2023-04-03T03:51:22;96362.28;;;4.56;69.74
42771;BME280;28426;42.872;25.314;2023-04-03T03:53:53;96357.31;;;4.53;69.46
42771;BME280;28426;42.872;25.314;2023-04-03T03:56:24;96374.16;;;4.52;69.71
42771;BME280;28426;42.872;25.314;2023-04-03T03:58:55;96362.91;;;4.50;69.57
42771;BME280;28426;42.872;25.314;2023-04-03T04:01:26;96366.06;;;4.45;70.01
42771;BME280;28426;42.872;25.314;2023-04-03T04:04:00;96368.88;;;4.44;69.65
42771;BME280;28426;42.872;25.314;2023-04-03T04:06:31;96355.00;;;4.42;69.65
42771;BME280;28426;42.872;25.314;2023-04-03T04:09:05;96362.28;;;4.40;69.56
42771;BME280;28426;42.872;25.314;2023-04-03T04:11:36;96358.97;;;4.38;70.14
42771;BME280;28426;42.872;25.314;2023-04-03T04:14:09;96354.81;;;4.35;69.69
42771;BME280;28426;42.872;25.314;2023-04-03T04:16:42;96352.38;;;4.34;70.43
42771;BME280;28426;42.872;25.314;2023-04-03T04:19:21;96355.34;;;4.30;70.27
42771;BME280;28426;42.872;25.314;2023-04-03T04:21:52;96359.94;;;4.28;70.66
42771;BME280;28426;42.872;25.314;2023-04-03T04:24:23;96353.84;;;4.28;70.51
42771;BME280;28426;42.872;25.314;2023-04-03T04:26:55;96363.56;;;4.27;70.52
42771;BME280;28426;42.872;25.314;2023-04-03T04:29:26;96370.69;;;4.27;70.71
42771;BME280;28426;42.872;25.314;2023-04-03T04:31:58;96373.34;;;4.27;70.76
42771;BME280;28426;42.872;25.314;2023-04-03T04:34:31;96376.13;;;4.25;70.84
42771;BME280;28426;42.872;25.314;2023-04-03T04:37:02;96373.66;;;4.24;71.07
42771;BME280;28426;42.872;25.314;2023-04-03T04:39:34;96372.50;;;4.26;70.86
42771;BME280;28426;42.872;25.314;2023-04-03T04:42:05;96385.38;;;4.29;71.13
42771;BME280;28426;42.872;25.314;2023-04-03T04:44:44;96385.38;;;4.29;71.23
42771;BME280;28426;42.872;25.314;2023-04-03T04:47:16;96389.34;;;4.34;71.21
42771;BME280;28426;42.872;25.314;2023-04-03T04:49:49;96394.44;;;4.35;71.85
42771;BME280;28426;42.872;25.314;2023-04-03T04:52:21;96394.97;;;4.39;71.75
42771;BME280;28426;42.872;25.314;2023-04-03T04:54:52;96386.69;;;4.42;72.03
42771;BME280;28426;42.872;25.314;2023-04-03T04:57:23;96394.97;;;4.47;71.77
42771;BME280;28426;42.872;25.314;2023-04-03T04:59:54;96397.78;;;4.54;71.83
42771;BME280;28426;42.872;25.314;2023-04-03T05:02:25;96405.53;;;4.64;72.17
42771;BME280;28426;42.872;25.314;2023-04-03T05:04:58;96417.44;;;4.76;72.53
42771;BME280;28426;42.872;25.314;2023-04-03T05:07:32;96417.13;;;4.88;72.19
42771;BME280;28426;42.872;25.314;2023-04-03T05:10:04;96407.19;;;4.98;71.95
42771;BME280;28426;42.872;25.314;2023-04-03T05:12:35;96407.81;;;5.08;71.53
42771;BME280;28426;42.872;25.314;2023-04-03T05:15:07;96411.47;;;5.16;71.36
42771;BME280;28426;42.872;25.314;2023-04-03T05:17:38;96414.25;;;5.22;71.18
42771;BME280;28426;42.872;25.314;2023-04-03T05:20:15;96416.06;;;5.30;71.09
42771;BME280;28426;42.872;25.314;2023-04-03T05:22:47;96422.81;;;5.41;70.85
42771;BME280;28426;42.872;25.314;2023-04-03T05:25:18;96406.41;;;5.54;70.77
42771;BME280;28426;42.872;25.314;2023-04-03T05:27:48;96414.44;;;5.69;70.61
42771;BME280;28426;42.872;25.314;2023-04-03T05:30:19;96414.22;;;5.87;70.60
42771;BME280;28426;42.872;25.314;2023-04-03T05:32:50;96415.13;;;6.11;70.35
42771;BME280;28426;42.872;25.314;2023-04-03T05:35:35;96415.75;;;6.45;70.16
42771;BME280;28426;42.872;25.314;2023-04-03T05:38:11;96416.34;;;6.79;69.81
42771;BME280;28426;42.872;25.314;2023-04-03T05:40:43;96418.72;;;7.12;69.21
42771;BME280;28426;42.872;25.314;2023-04-03T05:43:14;96422.06;;;7.44;68.15
42771;BME280;28426;42.872;25.314;2023-04-03T05:45:47;96415.28;;;7.72;67.51
42771;BME280;28426;42.872;25.314;2023-04-03T05:48:19;96420.13;;;7.98;66.75
42771;BME280;28426;42.872;25.314;2023-04-03T05:50:53;96415.31;;;8.24;66.01
42771;BME280;28426;42.872;25.314;2023-04-03T05:53:28;96407.81;;;8.49;65.55
42771;BME280;28426;42.872;25.314;2023-04-03T05:56:03;96402.53;;;8.71;64.70
42771;BME280;28426;42.872;25.314;2023-04-03T05:58:38;96400.22;;;8.90;64.00
42771;BME280;28426;42.872;25.314;2023-04-03T06:01:09;96404.63;;;9.05;63.43
42771;BME280;28426;42.872;25.314;2023-04-03T06:03:40;96410.25;;;9.16;62.77
42771;BME280;28426;42.872;25.314;2023-04-03T06:06:14;96405.63;;;9.25;62.09
42771;BME280;28426;42.872;25.314;2023-04-03T06:08:45;96401.56;;;9.29;61.67
42771;BME280;28426;42.872;25.314;2023-04-03T06:11:16;96412.81;;;9.32;61.01
42771;BME280;28426;42.872;25.314;2023-04-03T06:13:48;96414.66;;;9.31;60.80
42771;BME280;28426;42.872;25.314;2023-04-03T06:16:19;96410.22;;;9.38;60.99
42771;BME280;28426;42.872;25.314;2023-04-03T06:18:50;96417.22;;;9.46;60.59
42771;BME280;28426;42.872;25.314;2023-04-03T06:21:23;96416.44;;;9.52;60.84
42771;BME280;28426;42.872;25.314;2023-04-03T06:23:54;96412.63;;;9.62;60.85
42771;BME280;28426;42.872;25.314;2023-04-03T06:26:24;96410.03;;;9.75;60.89
42771;BME280;28426;42.872;25.314;2023-04-03T06:28:55;96416.84;;;9.85;60.79
42771;BME280;28426;42.872;25.314;2023-04-03T06:31:26;96411.94;;;9.95;60.16
42771;BME280;28426;42.872;25.314;2023-04-03T06:33:57;96408.09;;;10.04;60.07
42771;BME280;28426;42.872;25.314;2023-04-03T06:36:30;96408.53;;;10.15;59.84
42771;BME280;28426;42.872;25.314;2023-04-03T06:39:02;96410.03;;;10.24;59.37
42771;BME280;28426;42.872;25.314;2023-04-03T06:41:33;96409.63;;;10.34;59.01
42771;BME280;28426;42.872;25.314;2023-04-03T06:44:04;96415.03;;;10.48;58.74
42771;BME280;28426;42.872;25.314;2023-04-03T06:46:38;96412.84;;;10.65;58.58
42771;BME280;28426;42.872;25.314;2023-04-03T06:49:09;96412.44;;;10.81;58.58
42771;BME280;28426;42.872;25.314;2023-04-03T06:51:43;96421.88;;;10.97;58.29
42771;BME280;28426;42.872;25.314;2023-04-03T06:54:13;96421.09;;;11.17;58.17
42771;BME280;28426;42.872;25.314;2023-04-03T06:56:44;96429.69;;;11.40;58.05
42771;BME280;28426;42.872;25.314;2023-04-03T06:59:15;96432.97;;;11.62;57.42
42771;BME280;28426;42.872;25.314;2023-04-03T07:01:45;96442.75;;;11.88;56.92
42771;BME280;28426;42.872;25.314;2023-04-03T07:04:16;96429.16;;;12.10;56.10
42771;BME280;28426;42.872;25.314;2023-04-03T07:06:50;96417.94;;;12.34;55.19
42771;BME280;28426;42.872;25.314;2023-04-03T07:09:21;96423.63;;;12.51;54.39
42771;BME280;28426;42.872;25.314;2023-04-03T07:11:52;96421.91;;;12.63;53.61
42771;BME280;28426;42.872;25.314;2023-04-03T07:14:22;96425.09;;;12.79;52.90
42771;BME280;28426;42.872;25.314;2023-04-03T07:16:53;96430.16;;;12.94;52.55
42771;BME280;28426;42.872;25.314;2023-04-03T07:19:24;96435.63;;;13.06;52.22
42771;BME280;28426;42.872;25.314;2023-04-03T07:21:58;96432.72;;;13.07;50.51
42771;BME280;28426;42.872;25.314;2023-04-03T07:24:28;96436.22;;;13.08;49.88
42771;BME280;28426;42.872;25.314;2023-04-03T07:26:59;96429.63;;;13.11;49.73
42771;BME280;28426;42.872;25.314;2023-04-03T07:29:31;96430.59;;;13.16;49.81
42771;BME280;28426;42.872;25.314;2023-04-03T07:32:02;96431.81;;;13.20;49.35
42771;BME280;28426;42.872;25.314;2023-04-03T07:34:34;96430.31;;;13.25;49.25
42771;BME280;28426;42.872;25.314;2023-04-03T07:37:07;96426.78;;;13.31;49.29
42771;BME280;28426;42.872;25.314;2023-04-03T07:39:38;96441.09;;;13.43;49.51
42771;BME280;28426;42.872;25.314;2023-04-03T07:42:09;96437.72;;;13.55;49.62
42771;BME280;28426;42.872;25.314;2023-04-03T07:44:40;96440.94;;;13.64;48.72
42771;BME280;28426;42.872;25.314;2023-04-03T07:47:11;96442.97;;;13.68;48.54
42771;BME280;28426;42.872;25.314;2023-04-03T07:49:42;96439.59;;;13.73;48.37
42771;BME280;28426;42.872;25.314;2023-04-03T07:52:15;96436.28;;;13.78;48.09
42771;BME280;28426;42.872;25.314;2023-04-03T07:54:46;96433.75;;;13.83;48.50
42771;BME280;28426;42.872;25.314;2023-04-03T07:57:17;96433.31;;;13.86;47.79
42771;BME280;28426;42.872;25.314;2023-04-03T07:59:47;96441.94;;;13.88;47.31
42771;BME280;28426;42.872;25.314;2023-04-03T08:02:18;96429.72;;;13.92;47.63
42771;BME280;28426;42.872;25.314;2023-04-03T08:04:49;96431.06;;;14.02;48.00
42771;BME280;28426;42.872;25.314;2023-04-03T08:07:22;96425.41;;;14.10;47.23
42771;BME280;28426;42.872;25.314;2023-04-03T08:09:53;96427.56;;;14.20;47.26
42771;BME280;28426;42.872;25.314;2023-04-03T08:12:24;96418.97;;;14.30;47.10
42771;BME280;28426;42.872;25.314;2023-04-03T08:14:56;96406.94;;;14.32;46.11
42771;BME280;28426;42.872;25.314;2023-04-03T08:17:27;96406.00;;;14.27;45.47
42771;BME280;28426;42.872;25.314;2023-04-03T08:19:57;96394.53;;;14.19;45.75
42771;BME280;28426;42.872;25.314;2023-04-03T08:22:32;96395.22;;;14.15;45.75
42771;BME280;28426;42.872;25.314;2023-04-03T08:25:06;96392.63;;;14.08;45.98
42771;BME280;28426;42.872;25.314;2023-04-03T08:27:37;96386.06;;;14.04;45.71
42771;BME280;28426;42.872;25.314;2023-04-03T08:30:09;96389.19;;;14.01;45.86
42771;BME280;28426;42.872;25.314;2023-04-03T08:32:40;96393.06;;;14.05;46.03
42771;BME280;28426;42.872;25.314;2023-04-03T08:35:12;96384.72;;;14.13;46.54
42771;BME280;28426;42.872;25.314;2023-04-03T08:37:45;96373.44;;;14.23;46.80
42771;BME280;28426;42.872;25.314;2023-04-03T08:40:16;96383.72;;;14.26;45.78
42771;BME280;28426;42.872;25.314;2023-04-03T08:42:54;96381.63;;;14.28;45.79
42771;BME280;28426;42.872;25.314;2023-04-03T08:45:40;96383.28;;;14.29;45.44
42771;BME280;28426;42.872;25.314;2023-04-03T08:48:15;96382.56;;;14.34;45.40
42771;BME280;28426;42.872;25.314;2023-04-03T08:50:50;96381.22;;;14.43;45.86
42771;BME280;28426;42.872;25.314;2023-04-03T08:53:28;96379.81;;;14.71;45.38
42771;BME280;28426;42.872;25.314;2023-04-03T08:56:00;96378.69;;;14.91;45.18
42771;BME280;28426;42.872;25.314;2023-04-03T08:58:36;96376.16;;;15.08;45.16
42771;BME280;28426;42.872;25.314;2023-04-03T09:01:18;96377.69;;;15.28;44.80
42771;BME280;28426;42.872;25.314;2023-04-03T09:03:49;96376.75;;;15.46;44.41
42771;BME280;28426;42.872;25.314;2023-04-03T09:06:22;96370.78;;;15.56;43.43
42771;BME280;28426;42.872;25.314;2023-04-03T09:09:07;96373.25;;;15.58;42.73
42771;BME280;28426;42.872;25.314;2023-04-03T09:11:49;96368.94;;;15.56;42.94
42771;BME280;28426;42.872;25.314;2023-04-03T09:14:27;96365.66;;;15.54;42.87
42771;BME280;28426;42.872;25.314;2023-04-03T09:17:04;96362.84;;;15.49;42.70
42771;BME280;28426;42.872;25.314;2023-04-03T09:19:43;96348.13;;;15.40;42.61
42771;BME280;28426;42.872;25.314;2023-04-03T09:22:21;96347.41;;;15.33;42.81
42771;BME280;28426;42.872;25.314;2023-04-03T09:24:57;96343.94;;;15.32;42.99
42771;BME280;28426;42.872;25.314;2023-04-03T09:27:29;96346.50;;;15.39;43.57
42771;BME280;28426;42.872;25.314;2023-04-03T09:30:00;96343.19;;;15.49;43.85
42771;BME280;28426;42.872;25.314;2023-04-03T09:32:34;96335.72;;;15.63;43.23
42771;BME280;28426;42.872;25.314;2023-04-03T09:35:17;96329.59;;;15.79;42.74
42771;BME280;28426;42.872;25.314;2023-04-03T09:38:00;96330.03;;;15.88;42.67
42771;BME280;28426;42.872;25.314;2023-04-03T09:40:38;96332.00;;;16.05;42.46
42771;BME280;28426;42.872;25.314;2023-04-03T09:43:24;96326.00;;;16.15;42.55
42771;BME280;28426;42.872;25.314;2023-04-03T09:45:56;96330.75;;;16.25;42.18
42771;BME280;28426;42.872;25.314;2023-04-03T09:48:51;96329.06;;;16.36;42.08
42771;BME280;28426;42.872;25.314;2023-04-03T09:51:35;96323.22;;;16.39;41.73
42771;BME280;28426;42.872;25.314;2023-04-03T09:54:33;96331.84;;;16.41;41.58
42771;BME280;28426;42.872;25.314;2023-04-03T09:57:10;96324.59;;;16.41;41.32
42771;BME280;28426;42.872;25.314;2023-04-03T09:59:47;96323.78;;;16.41;41.36
42771;BME280;28426;42.872;25.314;2023-04-03T10:02:36;96321.31;;;16.39;40.89
42771;BME280;28426;42.872;25.314;2023-04-03T10:05:31;96325.31;;;16.37;40.58
42771;BME280;28426;42.872;25.314;2023-04-03T10:08:22;96325.56;;;16.35;40.79
42771;BME280;28426;42.872;25.314;2023-04-03T10:11:11;96320.44;;;16.33;41.04
42771;BME280;28426;42.872;25.314;2023-04-03T10:13:53;96307.13;;;16.27;40.21
42771;BME280;28426;42.872;25.314;2023-04-03T10:16:27;96303.75;;;16.19;40.93
42771;BME280;28426;42.872;25.314;2023-04-03T10:21:55;96311.63;;;16.09;40.96
42771;BME280;28426;42.872;25.314;2023-04-03T10:24:31;96310.72;;;16.03;41.25
42771;BME280;28426;42.872;25.314;2023-04-03T10:27:09;96303.13;;;16.00;41.34
42771;BME280;28426;42.872;25.314;2023-04-03T10:29:50;96299.50;;;15.94;41.31
42771;BME280;28426;42.872;25.314;2023-04-03T10:32:47;96297.97;;;15.87;41.07
42771;BME280;28426;42.872;25.314;2023-04-03T10:35:34;96295.44;;;15.80;41.58
42771;BME280;28426;42.872;25.314;2023-04-03T10:38:14;96286.94;;;15.71;41.33
42771;BME280;28426;42.872;25.314;2023-04-03T10:40:52;96262.78;;;15.47;41.38
42771;BME280;28426;42.872;25.314;2023-04-03T10:43:31;96274.03;;;15.44;41.52
42771;BME280;28426;42.872;25.314;2023-04-03T10:46:11;96273.22;;;15.32;41.16
42771;BME280;28426;42.872;25.314;2023-04-03T10:48:52;96269.50;;;15.21;41.58
42771;BME280;28426;42.872;25.314;2023-04-03T10:51:29;96267.97;;;15.13;41.83
42771;BME280;28426;42.872;25.314;2023-04-03T10:54:06;96242.41;;;14.98;42.17
42771;BME280;28426;42.872;25.314;2023-04-03T10:56:40;96265.66;;;15.04;42.34
42771;BME280;28426;42.872;25.314;2023-04-03T10:59:17;96268.22;;;14.99;42.17
42771;BME280;28426;42.872;25.314;2023-04-03T11:01:54;96262.13;;;14.92;42.57
42771;BME280;28426;42.872;25.314;2023-04-03T11:04:28;96254.56;;;14.89;44.23
42771;BME280;28426;42.872;25.314;2023-04-03T11:07:08;96253.41;;;14.85;45.30
42771;BME280;28426;42.872;25.314;2023-04-03T11:09:42;96252.78;;;14.83;45.16
42771;BME280;28426;42.872;25.314;2023-04-03T11:12:18;96247.44;;;14.83;45.62
42771;BME280;28426;42.872;25.314;2023-04-03T11:14:52;96249.53;;;14.81;44.62
42771;BME280;28426;42.872;25.314;2023-04-03T11:17:33;96247.09;;;14.79;45.63
42771;BME280;28426;42.872;25.314;2023-04-03T11:20:09;96242.50;;;14.80;45.30
42771;BME280;28426;42.872;25.314;2023-04-03T11:22:48;96234.94;;;14.76;45.17
42771;BME280;28426;42.872;25.314;2023-04-03T11:25:23;96253.84;;;14.82;44.81
42771;BME280;28426;42.872;25.314;2023-04-03T11:27:56;96248.47;;;14.82;44.81
42771;BME280;28426;42.872;25.314;2023-04-03T11:30:30;96248.47;;;14.82;44.70
42771;BME280;28426;42.872;25.314;2023-04-03T11:33:28;96243.94;;;14.82;45.16
42771;BME280;28426;42.872;25.314;2023-04-03T11:36:07;96261.91;;;14.82;44.84
42771;BME280;28426;42.872;25.314;2023-04-03T11:38:56;96248.38;;;14.76;44.48
42771;BME280;28426;42.872;25.314;2023-04-03T11:41:29;96257.91;;;14.72;45.06
42771;BME280;28426;42.872;25.314;2023-04-03T11:44:02;96251.03;;;14.64;45.15
42771;BME280;28426;42.872;25.314;2023-04-03T11:49:58;96250.06;;;14.59;45.04
42771;BME280;28426;42.872;25.314;2023-04-03T11:53:01;96256.13;;;14.54;45.57
42771;BME280;28426;42.872;25.314;2023-04-03T11:55:55;96246.31;;;14.48;45.63
42771;BME280;28426;42.872;25.314;2023-04-03T11:58:28;96262.53;;;14.41;46.00
42771;BME280;28426;42.872;25.314;2023-04-03T12:01:01;96262.88;;;14.33;46.25
42771;BME280;28426;42.872;25.314;2023-04-03T12:04:06;96277.22;;;14.27;46.80
42771;BME280;28426;42.872;25.314;2023-04-03T12:06:58;96283.94;;;14.17;47.40
42771;BME280;28426;42.872;25.314;2023-04-03T12:12:58;96297.38;;;13.98;49.82
42771;BME280;28426;42.872;25.314;2023-04-03T12:15:52;96294.44;;;13.88;50.65
42771;BME280;28426;42.872;25.314;2023-04-03T12:18:55;96298.91;;;13.76;50.90
42771;BME280;28426;42.872;25.314;2023-04-03T12:24:29;96292.59;;;13.51;52.24
42771;BME280;28426;42.872;25.314;2023-04-03T12:27:26;96284.47;;;13.39;52.36
42771;BME280;28426;42.872;25.314;2023-04-03T12:30:20;96289.09;;;13.32;53.08
42771;BME280;28426;42.872;25.314;2023-04-03T12:33:03;96277.63;;;13.25;53.71
42771;BME280;28426;42.872;25.314;2023-04-03T12:35:47;96276.63;;;13.19;54.95
42771;BME280;28426;42.872;25.314;2023-04-03T12:38:41;96282.06;;;13.12;54.36
42771;BME280;28426;42.872;25.314;2023-04-03T12:41:25;96285.63;;;13.06;54.51
42771;BME280;28426;42.872;25.314;2023-04-03T12:44:17;96274.78;;;13.01;54.89
42771;BME280;28426;42.872;25.314;2023-04-03T12:46:53;96273.16;;;13.00;54.86
42771;BME280;28426;42.872;25.314;2023-04-03T12:49:38;96267.78;;;13.00;55.32
42771;BME280;28426;42.872;25.314;2023-04-03T12:52:16;96260.34;;;13.02;56.02
42771;BME280;28426;42.872;25.314;2023-04-03T12:54:50;96256.63;;;13.03;55.22
42771;BME280;28426;42.872;25.314;2023-04-03T12:57:25;96241.59;;;13.02;55.64
42771;BME280;28426;42.872;25.314;2023-04-03T12:59:56;96245.03;;;13.09;55.66
42771;BME280;28426;42.872;25.314;2023-04-03T13:02:29;96244.41;;;13.07;54.79
42771;BME280;28426;42.872;25.314;2023-04-03T13:05:09;96243.00;;;13.04;55.17
42771;BME280;28426;42.872;25.314;2023-04-03T13:07:49;96251.47;;;13.01;55.04
42771;BME280;28426;42.872;25.314;2023-04-03T13:10:29;96249.25;;;12.98;55.25
42771;BME280;28426;42.872;25.314;2023-04-03T13:13:10;96243.28;;;12.96;56.33
42771;BME280;28426;42.872;25.314;2023-04-03T13:15:52;96240.03;;;12.94;56.19
42771;BME280;28426;42.872;25.314;2023-04-03T13:18:32;96238.75;;;12.97;56.74
42771;BME280;28426;42.872;25.314;2023-04-03T13:21:05;96241.44;;;12.97;57.10
42771;BME280;28426;42.872;25.314;2023-04-03T13:23:40;96231.09;;;13.00;57.07
42771;BME280;28426;42.872;25.314;2023-04-03T13:26:15;96231.94;;;13.01;57.53
42771;BME280;28426;42.872;25.314;2023-04-03T13:28:50;96222.47;;;12.98;57.55
42771;BME280;28426;42.872;25.314;2023-04-03T13:31:25;96215.72;;;12.95;57.62
42771;BME280;28426;42.872;25.314;2023-04-03T13:33:57;96218.00;;;12.92;58.47
42771;BME280;28426;42.872;25.314;2023-04-03T13:36:31;96218.06;;;12.85;58.34
42771;BME280;28426;42.872;25.314;2023-04-03T13:39:23;96211.75;;;12.79;58.88
42771;BME280;28426;42.872;25.314;2023-04-03T13:41:55;96203.19;;;12.71;58.36
42771;BME280;28426;42.872;25.314;2023-04-03T13:44:34;96195.81;;;12.66;58.76
42771;BME280;28426;42.872;25.314;2023-04-03T13:47:18;96209.84;;;12.61;59.60